Time;durP1;ratioP1;P1;durP2;ratioP2;P2;SDS_P1;SDS_P2;PMS_P1;PMS_P2;Temp;Humidity;BMP_temperature;BMP_pressure;BME280_temperature;BME280_humidity;BME280_pressure;Samples;Min_cycle;Max_cycle;Signal;HPM_P1;HPM_P2
2023/04/18 00:02:16;;;;;;;37.15;18.95;;;;;;;;;;5017608;28;25085;-77
2023/04/18 00:04:45;;;;;;;38.35;19.55;;;;;;;;;;5008436;28;25061;-76
2023/04/18 00:07:12;;;;;;;42.80;19.50;;;;;;;;;;5011755;28;25082;-75
2023/04/18 00:09:38;;;;;;;43.42;20.38;;;;;;;;;;5009219;28;25082;-76
2023/04/18 00:12:04;;;;;;;46.22;20.10;;;;;;;;;;5015143;28;25090;-77
2023/04/18 00:14:30;;;;;;;34.03;19.02;;;;;;;;;;5016980;28;25100;-76
2023/04/18 00:16:56;;;;;;;38.05;19.05;;;;;;;;;;5014082;28;25081;-75
2023/04/18 00:19:22;;;;;;;36.80;20.10;;;;;;;;;;5016000;28;25073;-77
2023/04/18 00:21:48;;;;;;;34.95;19.40;;;;;;;;;;5016469;28;25102;-77
2023/04/18 00:24:15;;;;;;;39.75;20.70;;;;;;;;;;4991107;28;25051;-76
2023/04/18 00:26:41;;;;;;;35.47;18.73;;;;;;;;;;4995822;28;25097;-77
2023/04/18 00:29:07;;;;;;;38.53;19.17;;;;;;;;;;5003982;28;25071;-73
2023/04/18 00:31:33;;;;;;;35.60;19.85;;;;;;;;;;5012818;28;25074;-81
2023/04/18 00:33:59;;;;;;;38.70;18.17;;;;;;;;;;5014154;28;25097;-76
2023/04/18 00:36:26;;;;;;;32.42;19.02;;;;;;;;;;5026751;28;25068;-74
2023/04/18 00:38:52;;;;;;;35.42;17.17;;;;;;;;;;5015721;28;25077;-78
2023/04/18 00:41:19;;;;;;;34.97;19.00;;;;;;;;;;5019980;28;25091;-77
2023/04/18 00:43:45;;;;;;;36.72;17.67;;;;;;;;;;5017024;28;25096;-76
2023/04/18 00:46:11;;;;;;;33.92;17.35;;;;;;;;;;5015534;28;25151;-75
2023/04/18 00:48:37;;;;;;;31.52;16.98;;;;;;;;;;5021146;28;25127;-74
2023/04/18 00:51:04;;;;;;;32.78;16.45;;;;;;;;;;5010700;28;25064;-74
2023/04/18 00:53:30;;;;;;;30.05;17.38;;;;;;;;;;5012141;28;25076;-74
2023/04/18 00:55:56;;;;;;;33.33;17.10;;;;;;;;;;5004987;28;25081;-73
2023/04/18 00:58:23;;;;;;;32.03;16.48;;;;;;;;;;5017608;28;25097;-72
2023/04/18 01:00:49;;;;;;;34.60;17.67;;;;;;;;;;5013285;28;25061;-73
2023/04/18 01:03:17;;;;;;;29.73;15.98;;;;;;;;;;4995750;28;25134;-75
2023/04/18 01:05:43;;;;;;;36.53;17.02;;;;;;;;;;5010779;28;25053;-75
2023/04/18 01:08:09;;;;;;;32.25;17.13;;;;;;;;;;5029177;28;25137;-74
2023/04/18 01:10:36;;;;;;;33.03;17.52;;;;;;;;;;5021916;28;25082;-75
2023/04/18 01:13:18;;;;;;;31.75;17.17;;;;;;;;;;5003777;28;25091;-72
2023/04/18 01:15:48;;;;;;;35.63;17.92;;;;;;;;;;5015469;28;25152;-78
2023/04/18 01:18:17;;;;;;;32.22;16.10;;;;;;;;;;5012658;28;25070;-78
2023/04/18 01:20:46;;;;;;;31.67;15.95;;;;;;;;;;5023656;28;25163;-79
2023/04/18 01:23:12;;;;;;;39.25;18.02;;;;;;;;;;5031877;28;25063;-74
2023/04/18 01:25:38;;;;;;;31.95;15.25;;;;;;;;;;5019068;28;25103;-73
2023/04/18 01:28:05;;;;;;;25.75;15.15;;;;;;;;;;5010754;28;25089;-74
2023/04/18 01:30:31;;;;;;;35.50;16.15;;;;;;;;;;5011845;28;25053;-77
2023/04/18 01:32:57;;;;;;;28.10;15.32;;;;;;;;;;5015654;28;25066;-75
2023/04/18 01:35:23;;;;;;;30.25;16.40;;;;;;;;;;5014495;28;25097;-75
2023/04/18 01:37:49;;;;;;;29.33;15.55;;;;;;;;;;4999279;28;25092;-74
2023/04/18 01:40:15;;;;;;;27.70;14.43;;;;;;;;;;5011286;28;25113;-76
2023/04/18 01:42:41;;;;;;;23.67;14.85;;;;;;;;;;5013741;28;25069;-76
2023/04/18 01:45:07;;;;;;;28.55;14.63;;;;;;;;;;4995153;28;25076;-74
2023/04/18 01:47:33;;;;;;;21.10;12.38;;;;;;;;;;5014565;28;25072;-78
2023/04/18 01:49:59;;;;;;;21.42;11.43;;;;;;;;;;5017961;28;25062;-76
2023/04/18 01:52:26;;;;;;;25.27;13.18;;;;;;;;;;5016270;28;25078;-76
2023/04/18 01:54:52;;;;;;;24.65;12.98;;;;;;;;;;5014978;28;25078;-73
2023/04/18 01:57:18;;;;;;;25.77;12.60;;;;;;;;;;4995890;28;25068;-74
2023/04/18 01:59:44;;;;;;;25.17;12.55;;;;;;;;;;5014261;28;25070;-77
2023/04/18 02:02:10;;;;;;;23.02;12.73;;;;;;;;;;4998347;28;25055;-75
2023/04/18 02:04:36;;;;;;;20.00;11.27;;;;;;;;;;4998398;28;25068;-74
2023/04/18 02:07:02;;;;;;;24.13;11.82;;;;;;;;;;5019050;28;25063;-76
2023/04/18 02:09:28;;;;;;;22.27;10.95;;;;;;;;;;5014017;28;25059;-75
2023/04/18 02:11:58;;;;;;;20.48;11.50;;;;;;;;;;5014995;28;25160;-75
2023/04/18 02:14:24;;;;;;;20.10;10.68;;;;;;;;;;5015191;28;25092;-75
2023/04/18 02:16:50;;;;;;;18.27;10.88;;;;;;;;;;5008687;28;25142;-75
2023/04/18 02:19:16;;;;;;;20.80;10.82;;;;;;;;;;5009346;28;25073;-74
2023/04/18 02:21:43;;;;;;;20.40;10.15;;;;;;;;;;5006174;28;25052;-76
2023/04/18 02:24:09;;;;;;;16.48;10.50;;;;;;;;;;4997275;28;25080;-75
2023/04/18 02:26:35;;;;;;;17.42;9.70;;;;;;;;;;4990201;28;25057;-74
2023/04/18 02:29:01;;;;;;;20.55;9.65;;;;;;;;;;4994006;28;25083;-74
2023/04/18 02:31:27;;;;;;;20.67;9.32;;;;;;;;;;5025536;28;25102;-72
2023/04/18 02:33:54;;;;;;;23.38;10.55;;;;;;;;;;4998828;28;25079;-76
2023/04/18 02:36:20;;;;;;;22.02;9.88;;;;;;;;;;5011597;28;25061;-75
2023/04/18 02:38:46;;;;;;;18.10;10.38;;;;;;;;;;5018135;28;25084;-75
2023/04/18 02:41:16;;;;;;;14.27;9.10;;;;;;;;;;5021187;28;25081;-72
2023/04/18 02:43:42;;;;;;;16.50;9.38;;;;;;;;;;5013154;28;25063;-72
2023/04/18 02:46:08;;;;;;;19.60;10.27;;;;;;;;;;5014957;28;25090;-73
2023/04/18 02:48:34;;;;;;;17.83;9.55;;;;;;;;;;5019332;28;25076;-74
2023/04/18 02:51:06;;;;;;;22.80;10.85;;;;;;;;;;5026800;28;25058;-74
2023/04/18 02:53:32;;;;;;;21.52;10.77;;;;;;;;;;5010469;28;25057;-75
2023/04/18 02:55:59;;;;;;;16.15;10.75;;;;;;;;;;5007231;28;25154;-79
2023/04/18 02:58:25;;;;;;;18.80;9.95;;;;;;;;;;5015979;28;25069;-77
2023/04/18 03:00:54;;;;;;;19.10;9.50;;;;;;;;;;5005160;28;25074;-77
2023/04/18 03:03:20;;;;;;;19.80;10.15;;;;;;;;;;5007774;28;25073;-76
2023/04/18 03:05:46;;;;;;;20.50;10.73;;;;;;;;;;5014796;28;25081;-75
2023/04/18 03:08:12;;;;;;;17.13;9.27;;;;;;;;;;5008449;28;25064;-74
2023/04/18 03:10:38;;;;;;;18.10;11.20;;;;;;;;;;4988276;28;25132;-74
2023/04/18 03:13:04;;;;;;;17.42;9.48;;;;;;;;;;5018130;28;25054;-74
2023/04/18 03:15:30;;;;;;;14.65;9.05;;;;;;;;;;4988928;28;25066;-75
2023/04/18 03:17:57;;;;;;;17.33;9.35;;;;;;;;;;5013171;28;25068;-73
2023/04/18 03:20:23;;;;;;;16.23;8.65;;;;;;;;;;5027335;28;25095;-71
2023/04/18 03:22:49;;;;;;;13.50;8.73;;;;;;;;;;5016365;28;25148;-76
2023/04/18 03:25:15;;;;;;;17.55;9.13;;;;;;;;;;5012805;28;25071;-76
2023/04/18 03:27:42;;;;;;;16.98;8.88;;;;;;;;;;5013873;28;25101;-75
2023/04/18 03:30:08;;;;;;;15.93;8.77;;;;;;;;;;5014578;28;25144;-77
2023/04/18 03:32:35;;;;;;;16.13;9.13;;;;;;;;;;5009100;28;25056;-76
2023/04/18 03:35:01;;;;;;;17.83;8.95;;;;;;;;;;5012552;28;25056;-76
2023/04/18 03:37:27;;;;;;;15.25;8.65;;;;;;;;;;5011010;28;25112;-73
2023/04/18 03:39:53;;;;;;;19.58;8.45;;;;;;;;;;5004200;28;25140;-72
2023/04/18 03:42:19;;;;;;;15.15;7.95;;;;;;;;;;5020546;28;25065;-75
2023/04/18 03:44:45;;;;;;;14.98;9.25;;;;;;;;;;5008380;28;25129;-75
2023/04/18 03:47:13;;;;;;;17.05;8.13;;;;;;;;;;4998136;28;25150;-75
2023/04/18 03:49:39;;;;;;;15.15;8.35;;;;;;;;;;5013747;28;25081;-77
2023/04/18 03:52:06;;;;;;;25.95;9.00;;;;;;;;;;5026210;28;25068;-74
2023/04/18 03:54:32;;;;;;;17.00;8.68;;;;;;;;;;5010572;28;25079;-74
2023/04/18 03:56:58;;;;;;;14.25;8.10;;;;;;;;;;5009719;28;25076;-71
2023/04/18 03:59:24;;;;;;;14.95;7.82;;;;;;;;;;5011776;28;25085;-74
2023/04/18 04:01:50;;;;;;;16.38;7.60;;;;;;;;;;5009992;28;25070;-72
2023/04/18 04:04:16;;;;;;;14.55;7.82;;;;;;;;;;5014730;28;25146;-77
2023/04/18 04:06:42;;;;;;;11.38;7.80;;;;;;;;;;5010642;28;25109;-73
2023/04/18 04:09:08;;;;;;;15.85;8.00;;;;;;;;;;5026917;28;25099;-72
2023/04/18 04:11:34;;;;;;;14.48;8.07;;;;;;;;;;5025804;28;25047;-73
2023/04/18 04:14:01;;;;;;;19.13;8.55;;;;;;;;;;5011961;28;25090;-74
2023/04/18 04:16:27;;;;;;;15.50;8.15;;;;;;;;;;5020273;28;25065;-72
2023/04/18 04:18:53;;;;;;;17.35;8.27;;;;;;;;;;5012283;28;25112;-73
2023/04/18 04:21:19;;;;;;;16.30;7.22;;;;;;;;;;5022700;28;25096;-74
2023/04/18 04:23:45;;;;;;;17.67;7.68;;;;;;;;;;5017148;28;25167;-76
2023/04/18 04:26:13;;;;;;;18.42;9.18;;;;;;;;;;5019263;28;25150;-77
2023/04/18 04:28:39;;;;;;;16.08;7.43;;;;;;;;;;5003681;28;25127;-74
2023/04/18 04:31:07;;;;;;;13.00;7.57;;;;;;;;;;5004457;28;25135;-75
2023/04/18 04:33:33;;;;;;;13.68;8.40;;;;;;;;;;5026065;28;25086;-76
2023/04/18 04:36:00;;;;;;;13.23;7.53;;;;;;;;;;5022734;28;25073;-75
2023/04/18 04:38:29;;;;;;;13.50;7.60;;;;;;;;;;5001962;28;25079;-77
2023/04/18 04:40:56;;;;;;;15.32;9.20;;;;;;;;;;5014503;28;25077;-77
2023/04/18 04:43:22;;;;;;;18.88;9.48;;;;;;;;;;5003317;28;25057;-73
2023/04/18 04:45:50;;;;;;;17.67;10.27;;;;;;;;;;5008997;28;25052;-77
2023/04/18 04:48:17;;;;;;;16.85;8.68;;;;;;;;;;5023522;28;25069;-74
2023/04/18 04:50:50;;;;;;;13.77;8.60;;;;;;;;;;5014050;28;25165;-77
2023/04/18 04:53:16;;;;;;;17.52;8.55;;;;;;;;;;5011729;28;25064;-75
2023/04/18 04:55:42;;;;;;;15.98;8.75;;;;;;;;;;5004592;28;25061;-75
2023/04/18 04:58:08;;;;;;;18.30;8.45;;;;;;;;;;5005897;28;25133;-74
2023/04/18 05:00:34;;;;;;;18.50;9.45;;;;;;;;;;5000205;28;25073;-75
2023/04/18 05:03:01;;;;;;;19.08;9.55;;;;;;;;;;5008981;28;25067;-76
2023/04/18 05:05:27;;;;;;;15.30;9.15;;;;;;;;;;5019012;28;25059;-76
2023/04/18 05:07:53;;;;;;;18.83;9.63;;;;;;;;;;5014249;28;25083;-75
2023/04/18 05:10:19;;;;;;;14.75;8.55;;;;;;;;;;4997714;28;25114;-77
2023/04/18 05:12:45;;;;;;;19.17;9.50;;;;;;;;;;5020011;28;25064;-76
2023/04/18 05:15:12;;;;;;;19.75;9.57;;;;;;;;;;5006011;28;25102;-78
2023/04/18 05:17:37;;;;;;;19.33;10.30;;;;;;;;;;5024146;28;25059;-76
2023/04/18 05:20:04;;;;;;;23.30;9.65;;;;;;;;;;5027759;28;25073;-73
2023/04/18 05:22:30;;;;;;;18.83;9.05;;;;;;;;;;5012410;28;25107;-74
2023/04/18 05:24:56;;;;;;;17.95;8.90;;;;;;;;;;5018527;28;25061;-76
2023/04/18 05:27:22;;;;;;;15.05;8.63;;;;;;;;;;5009619;28;25056;-74
2023/04/18 05:29:49;;;;;;;18.05;9.60;;;;;;;;;;4989879;28;25081;-76
2023/04/18 05:32:15;;;;;;;18.92;9.43;;;;;;;;;;5015976;28;25090;-75
2023/04/18 05:34:41;;;;;;;17.48;9.15;;;;;;;;;;5028660;28;25108;-78
2023/04/18 05:37:07;;;;;;;18.02;10.27;;;;;;;;;;5016437;28;25164;-77
2023/04/18 05:39:33;;;;;;;15.75;9.02;;;;;;;;;;5016179;28;25150;-74
2023/04/18 05:42:00;;;;;;;19.98;9.48;;;;;;;;;;5024162;28;25072;-77
2023/04/18 05:44:26;;;;;;;18.63;9.35;;;;;;;;;;5004023;28;25047;-75
2023/04/18 05:46:52;;;;;;;20.92;11.32;;;;;;;;;;5018660;28;25074;-74
2023/04/18 05:49:18;;;;;;;18.92;9.38;;;;;;;;;;5011648;28;25072;-76
2023/04/18 05:51:45;;;;;;;17.13;9.90;;;;;;;;;;5016655;28;25073;-75
2023/04/18 05:54:11;;;;;;;18.23;9.23;;;;;;;;;;5029369;28;25088;-78
2023/04/18 05:56:37;;;;;;;18.55;9.85;;;;;;;;;;5019642;28;25109;-75
2023/04/18 05:59:03;;;;;;;20.77;10.80;;;;;;;;;;5015115;28;25098;-76
2023/04/18 06:01:29;;;;;;;19.75;10.50;;;;;;;;;;5013556;28;25086;-73
2023/04/18 06:03:55;;;;;;;20.77;9.05;;;;;;;;;;5021238;28;25057;-74
2023/04/18 06:06:21;;;;;;;15.95;9.10;;;;;;;;;;5032653;28;25078;-78
2023/04/18 06:08:47;;;;;;;15.23;9.50;;;;;;;;;;5030847;28;25110;-76
2023/04/18 06:11:14;;;;;;;16.70;9.23;;;;;;;;;;5026854;28;25073;-75
2023/04/18 06:13:40;;;;;;;17.20;9.43;;;;;;;;;;5026659;28;25046;-79
2023/04/18 06:16:06;;;;;;;16.40;9.40;;;;;;;;;;5028635;28;25070;-76
2023/04/18 06:18:32;;;;;;;17.92;9.30;;;;;;;;;;5012324;28;25163;-75
2023/04/18 06:20:58;;;;;;;16.20;10.77;;;;;;;;;;5018890;28;25100;-75
2023/04/18 06:23:24;;;;;;;21.67;10.55;;;;;;;;;;5020428;28;25069;-74
2023/04/18 06:25:50;;;;;;;18.88;9.48;;;;;;;;;;5007435;28;25091;-73
2023/04/18 06:28:16;;;;;;;20.90;11.02;;;;;;;;;;5020653;28;25071;-76
2023/04/18 06:30:42;;;;;;;18.35;9.70;;;;;;;;;;5015801;28;25082;-74
2023/04/18 06:33:09;;;;;;;19.75;10.38;;;;;;;;;;5028287;28;25128;-75
2023/04/18 06:35:36;;;;;;;22.63;10.82;;;;;;;;;;5013375;28;25132;-75
2023/04/18 06:38:02;;;;;;;19.10;9.90;;;;;;;;;;5025707;28;25077;-74
2023/04/18 06:40:28;;;;;;;19.63;10.32;;;;;;;;;;5014160;28;25089;-77
2023/04/18 06:42:54;;;;;;;16.65;10.20;;;;;;;;;;5012871;28;25066;-75
2023/04/18 06:45:20;;;;;;;19.05;10.52;;;;;;;;;;5020331;28;25075;-74
2023/04/18 06:47:46;;;;;;;19.35;10.15;;;;;;;;;;5009388;28;25165;-74
2023/04/18 06:50:13;;;;;;;19.27;10.77;;;;;;;;;;5026579;28;25091;-75
2023/04/18 06:52:43;;;;;;;18.75;10.27;;;;;;;;;;5033919;28;25105;-72
2023/04/18 06:55:09;;;;;;;20.83;9.77;;;;;;;;;;5037543;28;25061;-77
2023/04/18 06:57:36;;;;;;;17.50;9.57;;;;;;;;;;5028543;28;25083;-74
2023/04/18 07:00:02;;;;;;;23.67;10.23;;;;;;;;;;5000147;28;25075;-74
2023/04/18 07:02:28;;;;;;;19.38;10.15;;;;;;;;;;5004999;28;25062;-77
2023/04/18 07:04:55;;;;;;;17.58;8.85;;;;;;;;;;5029791;28;25084;-74
2023/04/18 07:07:21;;;;;;;18.77;10.27;;;;;;;;;;5038536;28;25109;-74
2023/04/18 07:09:47;;;;;;;18.75;9.70;;;;;;;;;;5045302;28;25064;-75
2023/04/18 07:12:13;;;;;;;19.40;9.90;;;;;;;;;;5025829;28;25118;-74
2023/04/18 07:14:39;;;;;;;15.27;8.63;;;;;;;;;;5015601;28;25104;-74
2023/04/18 07:17:05;;;;;;;20.10;9.85;;;;;;;;;;5020797;28;25187;-73
2023/04/18 07:19:32;;;;;;;14.18;8.73;;;;;;;;;;5008920;28;25076;-74
2023/04/18 07:21:58;;;;;;;18.40;9.85;;;;;;;;;;5023614;28;25112;-72
2023/04/18 07:24:24;;;;;;;16.55;9.77;;;;;;;;;;5018025;28;25115;-73
2023/04/18 07:26:50;;;;;;;15.98;8.98;;;;;;;;;;5020364;28;25060;-75
2023/04/18 07:29:18;;;;;;;14.15;9.35;;;;;;;;;;5021262;28;25069;-73
2023/04/18 07:31:44;;;;;;;17.35;9.63;;;;;;;;;;4997813;28;25078;-77
2023/04/18 07:34:10;;;;;;;14.40;8.38;;;;;;;;;;4993118;28;25068;-74
2023/04/18 07:36:36;;;;;;;15.70;8.50;;;;;;;;;;5017429;28;25093;-75
2023/04/18 07:39:02;;;;;;;15.15;8.15;;;;;;;;;;5005759;28;25096;-75
2023/04/18 07:41:28;;;;;;;15.43;8.52;;;;;;;;;;5015859;28;25061;-75
2023/04/18 07:43:54;;;;;;;19.67;10.23;;;;;;;;;;5022918;28;25048;-75
2023/04/18 07:46:20;;;;;;;14.32;8.68;;;;;;;;;;5030187;28;25076;-73
2023/04/18 07:48:49;;;;;;;14.38;8.85;;;;;;;;;;5024181;28;25074;-74
2023/04/18 07:51:15;;;;;;;16.17;9.25;;;;;;;;;;4999918;28;25151;-75
2023/04/18 07:53:42;;;;;;;15.32;9.07;;;;;;;;;;4992125;28;25051;-76
2023/04/18 07:56:08;;;;;;;13.63;8.43;;;;;;;;;;5001077;28;25108;-75
2023/04/18 07:58:35;;;;;;;14.32;8.23;;;;;;;;;;5018179;28;25052;-74
2023/04/18 08:01:01;;;;;;;16.23;8.70;;;;;;;;;;5012593;28;25074;-75
2023/04/18 08:03:27;;;;;;;15.82;8.18;;;;;;;;;;5014232;28;25067;-74
2023/04/18 08:05:53;;;;;;;14.90;8.35;;;;;;;;;;5014672;28;25081;-75
2023/04/18 08:08:19;;;;;;;14.77;7.68;;;;;;;;;;5019015;28;25230;-72
2023/04/18 08:10:45;;;;;;;13.13;8.10;;;;;;;;;;5006145;28;25102;-75
2023/04/18 08:13:14;;;;;;;20.70;8.60;;;;;;;;;;5005323;28;25059;-75
2023/04/18 08:15:40;;;;;;;14.98;8.48;;;;;;;;;;5032591;28;25148;-74
2023/04/18 08:18:06;;;;;;;18.92;9.88;;;;;;;;;;5017299;28;25068;-75
2023/04/18 08:20:34;;;;;;;18.10;9.18;;;;;;;;;;5002634;28;25084;-73
2023/04/18 08:23:00;;;;;;;14.57;8.73;;;;;;;;;;5006372;28;25136;-75
2023/04/18 08:25:26;;;;;;;14.68;8.48;;;;;;;;;;5011778;28;25083;-75
2023/04/18 08:27:52;;;;;;;17.38;8.93;;;;;;;;;;5006255;28;25070;-77
2023/04/18 08:30:18;;;;;;;12.88;7.85;;;;;;;;;;5021688;28;25077;-76
2023/04/18 08:32:44;;;;;;;13.70;7.93;;;;;;;;;;5014468;28;25137;-76
2023/04/18 08:35:10;;;;;;;13.90;8.48;;;;;;;;;;5014209;28;25083;-75
2023/04/18 08:37:37;;;;;;;14.23;7.63;;;;;;;;;;5013693;28;25084;-75
2023/04/18 08:40:04;;;;;;;18.08;8.38;;;;;;;;;;5013638;28;25122;-73
2023/04/18 08:42:30;;;;;;;14.20;7.88;;;;;;;;;;5015353;28;25189;-74
2023/04/18 08:45:00;;;;;;;16.58;8.75;;;;;;;;;;5020215;28;25151;-75
2023/04/18 08:47:28;;;;;;;16.42;7.80;;;;;;;;;;5017641;28;25113;-74
2023/04/18 08:49:55;;;;;;;13.82;8.45;;;;;;;;;;5013078;28;25086;-74
2023/04/18 08:52:22;;;;;;;12.07;7.45;;;;;;;;;;5017220;28;25105;-73
2023/04/18 08:54:49;;;;;;;15.13;8.15;;;;;;;;;;5013498;28;25088;-70
2023/04/18 08:57:16;;;;;;;13.13;7.65;;;;;;;;;;5013029;28;25123;-74
2023/04/18 08:59:45;;;;;;;15.45;8.35;;;;;;;;;;5007409;28;25075;-74
2023/04/18 09:02:12;;;;;;;13.48;7.93;;;;;;;;;;5013442;28;25156;-74
2023/04/18 09:04:46;;;;;;;16.20;8.18;;;;;;;;;;5014382;28;25085;-76
2023/04/18 09:07:13;;;;;;;12.77;7.47;;;;;;;;;;5001720;28;25106;-72
2023/04/18 09:09:40;;;;;;;12.80;7.75;;;;;;;;;;5003305;28;25067;-72
2023/04/18 09:12:07;;;;;;;12.55;7.72;;;;;;;;;;5010396;28;25107;-75
2023/04/18 09:14:36;;;;;;;15.65;8.23;;;;;;;;;;5006454;28;25078;-73
2023/04/18 09:17:02;;;;;;;13.90;7.60;;;;;;;;;;5011227;28;25074;-76
2023/04/18 09:19:28;;;;;;;13.43;7.65;;;;;;;;;;5004824;28;25068;-73
2023/04/18 09:22:01;;;;;;;12.63;7.72;;;;;;;;;;5001560;28;25162;-73
2023/04/18 09:24:28;;;;;;;23.20;7.82;;;;;;;;;;5014829;28;25150;-74
2023/04/18 09:26:54;;;;;;;10.70;7.50;;;;;;;;;;5008302;28;25053;-74
2023/04/18 09:29:21;;;;;;;16.15;8.30;;;;;;;;;;5010691;28;25148;-72
2023/04/18 09:31:54;;;;;;;15.85;7.80;;;;;;;;;;5002731;28;25064;-73
2023/04/18 09:34:23;;;;;;;12.80;7.75;;;;;;;;;;5013593;28;25084;-71
2023/04/18 09:37:05;;;;;;;11.90;7.65;;;;;;;;;;5013179;28;25056;-74
2023/04/18 09:39:31;;;;;;;13.87;7.00;;;;;;;;;;5003067;28;25147;-71
2023/04/18 09:41:57;;;;;;;10.98;6.97;;;;;;;;;;5005911;28;25079;-76
2023/04/18 09:44:23;;;;;;;11.88;7.30;;;;;;;;;;4986057;28;25088;-74
2023/04/18 09:46:50;;;;;;;15.00;7.75;;;;;;;;;;5012303;28;25105;-73
2023/04/18 09:49:16;;;;;;;16.67;7.22;;;;;;;;;;4995964;28;25060;-75
2023/04/18 09:51:43;;;;;;;13.43;7.40;;;;;;;;;;5018618;28;25063;-75
2023/04/18 09:54:10;;;;;;;15.82;7.38;;;;;;;;;;5019062;28;25059;-75
2023/04/18 09:56:36;;;;;;;13.65;7.88;;;;;;;;;;5013644;28;25088;-73
2023/04/18 09:59:07;;;;;;;12.80;7.50;;;;;;;;;;5016786;28;25074;-78
2023/04/18 10:01:33;;;;;;;13.13;6.55;;;;;;;;;;5023472;28;25061;-75
2023/04/18 10:04:00;;;;;;;13.70;8.07;;;;;;;;;;5027315;28;25066;-75
2023/04/18 10:06:28;;;;;;;10.80;7.28;;;;;;;;;;5015246;28;25074;-76
2023/04/18 10:08:54;;;;;;;14.20;7.40;;;;;;;;;;5025916;28;25060;-75
2023/04/18 10:11:21;;;;;;;10.35;7.15;;;;;;;;;;5000702;28;25079;-75
2023/04/18 10:13:47;;;;;;;10.10;5.85;;;;;;;;;;5028140;28;25093;-74
2023/04/18 10:16:13;;;;;;;10.93;6.47;;;;;;;;;;5039567;28;25066;-76
2023/04/18 10:18:42;;;;;;;10.88;6.72;;;;;;;;;;5023447;28;25057;-78
2023/04/18 10:21:08;;;;;;;10.98;6.90;;;;;;;;;;5021304;28;25073;-75
2023/04/18 10:23:35;;;;;;;11.52;6.88;;;;;;;;;;5017584;28;25060;-75
2023/04/18 10:26:02;;;;;;;11.30;6.80;;;;;;;;;;5025407;28;25061;-74
2023/04/18 10:28:48;;;;;;;9.70;6.05;;;;;;;;;;5013272;28;25065;-76
2023/04/18 10:31:16;;;;;;;11.48;5.93;;;;;;;;;;5010761;28;25063;-73
2023/04/18 10:33:46;;;;;;;10.45;6.07;;;;;;;;;;4996665;28;25073;-74
2023/04/18 10:36:14;;;;;;;10.90;6.32;;;;;;;;;;5006227;28;25070;-75
2023/04/18 10:38:47;;;;;;;11.73;6.20;;;;;;;;;;5020917;28;25077;-76
2023/04/18 10:41:23;;;;;;;10.13;6.00;;;;;;;;;;5014992;28;25138;-74
2023/04/18 10:44:13;;;;;;;8.13;5.47;;;;;;;;;;5018772;28;25080;-74
2023/04/18 10:46:39;;;;;;;9.57;5.70;;;;;;;;;;5001132;28;25071;-75
2023/04/18 10:49:12;;;;;;;8.98;5.85;;;;;;;;;;5019031;28;25158;-75
2023/04/18 10:51:39;;;;;;;9.50;6.05;;;;;;;;;;5007470;28;25067;-74
2023/04/18 10:54:07;;;;;;;11.30;5.75;;;;;;;;;;5005430;28;25079;-72
2023/04/18 10:56:33;;;;;;;10.70;5.70;;;;;;;;;;5017208;28;25119;-74
2023/04/18 10:59:00;;;;;;;7.43;4.50;;;;;;;;;;5014117;28;25149;-72
2023/04/18 11:01:27;;;;;;;6.07;4.70;;;;;;;;;;5015070;28;25069;-75
2023/04/18 11:03:56;;;;;;;6.93;4.60;;;;;;;;;;5019757;28;25073;-72
2023/04/18 11:06:25;;;;;;;5.93;3.80;;;;;;;;;;5011939;28;25056;-72
2023/04/18 11:08:52;;;;;;;5.57;3.70;;;;;;;;;;5008327;28;25075;-74
2023/04/18 11:11:18;;;;;;;6.68;4.05;;;;;;;;;;5009455;28;25070;-71
2023/04/18 11:13:56;;;;;;;5.55;4.00;;;;;;;;;;5015078;28;25073;-72
2023/04/18 11:16:29;;;;;;;6.85;4.50;;;;;;;;;;5001561;28;25147;-72
2023/04/18 11:18:55;;;;;;;4.57;3.38;;;;;;;;;;5009370;28;25137;-75
2023/04/18 11:21:26;;;;;;;6.50;3.65;;;;;;;;;;5026241;28;25186;-75
2023/04/18 11:23:52;;;;;;;3.47;2.63;;;;;;;;;;5004447;28;25145;-74
2023/04/18 11:26:18;;;;;;;4.07;2.75;;;;;;;;;;5019560;28;25108;-73
2023/04/18 11:28:50;;;;;;;5.25;2.88;;;;;;;;;;5013406;28;25051;-74
2023/04/18 11:31:16;;;;;;;3.63;2.40;;;;;;;;;;4989477;28;25051;-74
2023/04/18 11:33:46;;;;;;;2.35;2.00;;;;;;;;;;5024154;28;25054;-73
2023/04/18 11:36:12;;;;;;;2.78;1.63;;;;;;;;;;5022594;28;25055;-71
2023/04/18 11:38:40;;;;;;;3.28;1.70;;;;;;;;;;5022778;28;25174;-73
2023/04/18 11:41:12;;;;;;;2.53;1.90;;;;;;;;;;4995479;28;25069;-73
2023/04/18 11:43:41;;;;;;;4.32;2.03;;;;;;;;;;5001785;28;25078;-73
2023/04/18 11:46:07;;;;;;;2.58;1.90;;;;;;;;;;4999463;28;25061;-75
2023/04/18 11:48:35;;;;;;;3.45;2.35;;;;;;;;;;4993822;28;25153;-73
2023/04/18 11:51:01;;;;;;;5.22;2.05;;;;;;;;;;5004265;28;25085;-72
2023/04/18 11:53:33;;;;;;;4.45;2.85;;;;;;;;;;4990634;28;25088;-74
2023/04/18 11:56:00;;;;;;;3.47;2.80;;;;;;;;;;5009649;28;25072;-78
2023/04/18 11:58:33;;;;;;;4.07;3.00;;;;;;;;;;5009545;28;25070;-75
2023/04/18 12:00:59;;;;;;;7.78;3.60;;;;;;;;;;5012993;28;25106;-74
2023/04/18 12:03:27;;;;;;;5.00;3.30;;;;;;;;;;4990095;28;25145;-75
2023/04/18 12:05:59;;;;;;;9.60;3.80;;;;;;;;;;5012041;28;25135;-73
2023/04/18 12:08:26;;;;;;;9.05;3.50;;;;;;;;;;5014733;28;25075;-74
2023/04/18 12:10:53;;;;;;;7.82;3.90;;;;;;;;;;5015351;28;25116;-74
2023/04/18 12:13:24;;;;;;;5.97;4.03;;;;;;;;;;5013359;28;25079;-73
2023/04/18 12:15:50;;;;;;;5.90;3.83;;;;;;;;;;4994512;28;25056;-74
2023/04/18 12:18:21;;;;;;;7.70;3.58;;;;;;;;;;5020165;28;25176;-78
2023/04/18 12:20:52;;;;;;;5.50;3.47;;;;;;;;;;5010300;28;25074;-75
2023/04/18 12:23:28;;;;;;;5.72;3.92;;;;;;;;;;5019355;28;25060;-77
2023/04/18 12:26:00;;;;;;;6.85;4.03;;;;;;;;;;5006827;28;25092;-75
2023/04/18 12:28:26;;;;;;;4.95;3.63;;;;;;;;;;5016141;28;25110;-75
2023/04/18 12:30:52;;;;;;;8.52;4.15;;;;;;;;;;5017560;28;25049;-73
2023/04/18 12:33:18;;;;;;;10.73;5.70;;;;;;;;;;5015765;28;25051;-78
2023/04/18 12:35:45;;;;;;;8.10;4.45;;;;;;;;;;5031463;28;25154;-71
2023/04/18 12:38:11;;;;;;;6.45;4.55;;;;;;;;;;5026568;28;25121;-74
2023/04/18 12:40:39;;;;;;;7.75;4.93;;;;;;;;;;5011459;28;25068;-75
2023/04/18 12:43:05;;;;;;;8.90;4.90;;;;;;;;;;5009450;28;25042;-77
2023/04/18 12:45:31;;;;;;;8.27;5.18;;;;;;;;;;5027572;28;25083;-73
2023/04/18 12:47:57;;;;;;;7.45;4.78;;;;;;;;;;5028535;28;25080;-77
2023/04/18 12:50:24;;;;;;;8.40;5.00;;;;;;;;;;5037263;28;25060;-76
2023/04/18 12:52:54;;;;;;;8.55;4.70;;;;;;;;;;5006956;28;25126;-73
2023/04/18 12:55:21;;;;;;;8.32;5.82;;;;;;;;;;5019595;28;25098;-74
2023/04/18 12:57:57;;;;;;;13.30;6.95;;;;;;;;;;5018019;28;25085;-72
2023/04/18 13:00:23;;;;;;;8.10;5.63;;;;;;;;;;5003749;28;25160;-74
2023/04/18 13:02:51;;;;;;;12.75;6.30;;;;;;;;;;5008035;28;25064;-72
2023/04/18 13:05:18;;;;;;;9.23;5.68;;;;;;;;;;4986850;28;25158;-73
2023/04/18 13:07:46;;;;;;;10.02;6.20;;;;;;;;;;5013825;28;25062;-76
2023/04/18 13:10:19;;;;;;;42.70;11.05;;;;;;;;;;5001375;28;25052;-74
2023/04/18 13:12:45;;;;;;;17.27;8.20;;;;;;;;;;5024146;28;25055;-73
2023/04/18 13:15:11;;;;;;;20.30;9.50;;;;;;;;;;4997549;28;25156;-72
2023/04/18 13:17:37;;;;;;;13.43;6.88;;;;;;;;;;5012409;28;25113;-75
2023/04/18 13:20:09;;;;;;;12.05;7.43;;;;;;;;;;5003687;28;25066;-72
2023/04/18 13:22:35;;;;;;;9.27;6.50;;;;;;;;;;5016747;28;25062;-74
2023/04/18 13:25:01;;;;;;;10.80;6.57;;;;;;;;;;5034869;28;25117;-73
2023/04/18 13:27:28;;;;;;;11.10;7.32;;;;;;;;;;5023156;28;25096;-73
2023/04/18 13:29:54;;;;;;;10.10;7.10;;;;;;;;;;5009413;28;25070;-70
2023/04/18 13:32:20;;;;;;;11.60;7.43;;;;;;;;;;5027848;28;25093;-75
2023/04/18 13:34:46;;;;;;;14.10;7.43;;;;;;;;;;5024347;28;25076;-73
2023/04/18 13:37:13;;;;;;;12.30;7.20;;;;;;;;;;5015582;28;25089;-75
2023/04/18 13:39:40;;;;;;;12.93;7.38;;;;;;;;;;5019017;28;25064;-75
2023/04/18 13:42:06;;;;;;;11.35;6.93;;;;;;;;;;5019987;28;25065;-75
2023/04/18 13:44:33;;;;;;;10.50;7.40;;;;;;;;;;5022816;28;25135;-74
2023/04/18 13:47:00;;;;;;;13.05;7.50;;;;;;;;;;5016266;28;25129;-74
2023/04/18 13:49:26;;;;;;;12.50;7.60;;;;;;;;;;5021107;28;25086;-73
2023/04/18 13:51:55;;;;;;;9.85;6.82;;;;;;;;;;5005516;28;25048;-74
2023/04/18 13:54:21;;;;;;;12.55;7.22;;;;;;;;;;5012468;28;25057;-76
2023/04/18 13:56:47;;;;;;;10.98;7.18;;;;;;;;;;5026130;28;25089;-76
2023/04/18 13:59:14;;;;;;;12.68;7.88;;;;;;;;;;5032978;28;25071;-74
2023/04/18 14:01:40;;;;;;;11.85;7.38;;;;;;;;;;5039043;28;25079;-76
2023/04/18 14:04:06;;;;;;;12.77;8.20;;;;;;;;;;5037409;28;25067;-78
2023/04/18 14:06:32;;;;;;;13.88;7.47;;;;;;;;;;5033656;28;25102;-75
2023/04/18 14:08:58;;;;;;;12.20;7.97;;;;;;;;;;5018950;28;25071;-77
2023/04/18 14:11:24;;;;;;;13.73;8.30;;;;;;;;;;5019330;28;25075;-75
2023/04/18 14:13:50;;;;;;;15.20;8.57;;;;;;;;;;5036660;28;25102;-73
2023/04/18 14:16:17;;;;;;;14.65;8.55;;;;;;;;;;5012520;28;25053;-77
2023/04/18 14:18:44;;;;;;;15.30;8.68;;;;;;;;;;5033622;28;25074;-78
2023/04/18 14:21:10;;;;;;;12.02;8.52;;;;;;;;;;5010230;28;25051;-75
2023/04/18 14:23:36;;;;;;;15.18;9.68;;;;;;;;;;5004030;28;25065;-75
2023/04/18 14:26:02;;;;;;;15.43;9.07;;;;;;;;;;4990268;28;25125;-77
2023/04/18 14:28:28;;;;;;;12.35;7.88;;;;;;;;;;5011496;28;25110;-76